createdAt,value
2023-04-01T00:00:11.710Z,12.20
2023-04-01T00:02:41.720Z,12.01
2023-04-01T00:05:08.758Z,11.98
2023-04-01T00:07:35.377Z,11.88
2023-04-01T00:10:01.980Z,11.71
2023-04-01T00:12:31.459Z,11.63
2023-04-01T00:14:58.104Z,11.68
2023-04-01T00:17:24.721Z,11.78
2023-04-01T00:19:51.357Z,11.77
2023-04-01T00:22:21.222Z,11.89
2023-04-01T00:24:47.791Z,11.96
2023-04-01T00:27:14.724Z,12.01
2023-04-01T00:29:44.864Z,12.07
2023-04-01T00:32:11.771Z,12.05
2023-04-01T00:34:41.022Z,12.02
2023-04-01T00:37:10.668Z,12.14
2023-04-01T00:39:37.285Z,11.87
2023-04-01T00:42:04.040Z,11.70
2023-04-01T00:44:32.010Z,11.68
2023-04-01T00:46:58.725Z,11.58
2023-04-01T00:49:34.191Z,11.52
2023-04-01T00:52:04.176Z,11.54
2023-04-01T00:54:31.573Z,11.40
2023-04-01T00:57:00.071Z,11.18
2023-04-01T00:59:31.370Z,11.04
2023-04-01T01:01:58.162Z,10.96
2023-04-01T01:04:28.060Z,10.77
2023-04-01T01:07:01.087Z,10.83
2023-04-01T01:09:48.834Z,10.81
2023-04-01T01:12:17.750Z,10.75
2023-04-01T01:14:44.379Z,10.75
2023-04-01T01:17:17.127Z,10.72
2023-04-01T01:19:58.395Z,10.73
2023-04-01T01:22:36.915Z,10.72
2023-04-01T01:25:23.756Z,10.75
2023-04-01T01:28:09.428Z,10.77
2023-04-01T01:30:48.803Z,10.85
2023-04-01T01:33:34.180Z,10.97
2023-04-01T01:36:00.920Z,11.08
2023-04-01T01:38:30.733Z,11.21
2023-04-01T01:41:02.946Z,11.33
2023-04-01T01:43:43.355Z,11.51
2023-04-01T01:46:20.371Z,11.64
2023-04-01T01:48:49.590Z,11.78
2023-04-01T01:51:16.161Z,11.88
2023-04-01T01:53:45.721Z,11.91
2023-04-01T01:56:15.359Z,11.91
2023-04-01T01:58:47.847Z,11.94
2023-04-01T02:01:18.434Z,11.95
2023-04-01T02:03:49.841Z,11.92
2023-04-01T02:06:17.307Z,11.78
2023-04-01T02:08:45.920Z,11.69
2023-04-01T02:11:13.814Z,11.63
2023-04-01T02:13:51.443Z,11.55
2023-04-01T02:16:22.605Z,11.48
2023-04-01T02:18:55.488Z,11.42
2023-04-01T02:21:27.399Z,11.34
2023-04-01T02:23:56.471Z,11.28
2023-04-01T02:26:26.744Z,11.26
2023-04-01T02:28:54.376Z,11.19
2023-04-01T02:31:21.103Z,11.17
2023-04-01T02:33:47.783Z,11.13
2023-04-01T02:36:15.054Z,11.12
2023-04-01T02:38:42.096Z,11.05
2023-04-01T02:41:11.230Z,11.00
2023-04-01T02:43:40.353Z,10.97
2023-04-01T02:46:07.215Z,10.97
2023-04-01T02:48:33.792Z,10.96
2023-04-01T02:51:00.390Z,10.94
2023-04-01T02:53:27.043Z,10.95
2023-04-01T02:55:56.901Z,10.94
2023-04-01T02:58:23.486Z,10.88
2023-04-01T03:00:50.517Z,10.86
2023-04-01T03:03:17.200Z,10.87
2023-04-01T03:05:43.994Z,10.91
2023-04-01T03:08:15.837Z,10.92
2023-04-01T03:10:44.875Z,10.96
2023-04-01T03:13:12.265Z,10.90
2023-04-01T03:15:38.992Z,10.76
2023-04-01T03:18:08.157Z,10.67
2023-04-01T03:20:36.865Z,10.58
2023-04-01T03:23:03.838Z,10.56
2023-04-01T03:25:32.860Z,10.51
2023-04-01T03:28:00.765Z,10.47
2023-04-01T03:30:32.230Z,10.46
2023-04-01T03:32:59.622Z,10.39
2023-04-01T03:35:26.486Z,10.38
2023-04-01T03:37:53.184Z,10.38
2023-04-01T03:40:20.328Z,10.42
2023-04-01T03:42:47.492Z,10.43
2023-04-01T03:45:15.882Z,10.47
2023-04-01T03:47:44.983Z,10.52
2023-04-01T03:50:17.008Z,10.51
2023-04-01T03:52:43.596Z,10.45
2023-04-01T03:55:13.203Z,10.44
2023-04-01T03:57:42.769Z,10.39
2023-04-01T04:00:19.729Z,10.40
2023-04-01T04:02:53.378Z,10.35
2023-04-01T04:05:26.460Z,10.32
2023-04-01T04:07:53.551Z,10.33
2023-04-01T04:10:20.362Z,10.27
2023-04-01T04:12:49.787Z,10.25
2023-04-01T04:15:16.716Z,10.20
2023-04-01T04:17:46.323Z,10.21
2023-04-01T04:20:16.149Z,10.16
2023-04-01T04:22:42.823Z,10.12
2023-04-01T04:25:14.807Z,10.10
2023-04-01T04:27:41.449Z,10.08
2023-04-01T04:30:11.372Z,10.04
2023-04-01T04:32:39.113Z,10.06
2023-04-01T04:35:08.693Z,10.06
2023-04-01T04:37:35.528Z,10.08
2023-04-01T04:40:02.153Z,10.12
2023-04-01T04:42:35.070Z,10.14
2023-04-01T04:45:07.409Z,10.23
2023-04-01T04:47:35.794Z,10.30
2023-04-01T04:50:04.635Z,10.41
2023-04-01T04:52:33.715Z,10.50
2023-04-01T04:55:02.779Z,10.46
2023-04-01T04:57:29.593Z,10.43
2023-04-01T04:59:58.648Z,10.44
2023-04-01T05:02:51.332Z,10.50
2023-04-01T05:05:18.258Z,10.58
2023-04-01T05:07:47.201Z,10.59
2023-04-01T05:10:16.675Z,10.64
2023-04-01T05:12:44.046Z,10.63
2023-04-01T05:15:17.705Z,10.65
2023-04-01T05:17:47.240Z,10.64
2023-04-01T05:20:15.020Z,10.66
2023-04-01T05:22:42.025Z,10.68
2023-04-01T05:25:11.386Z,10.66
2023-04-01T05:27:38.307Z,10.76
2023-04-01T05:30:06.297Z,10.81
2023-04-01T05:32:54.580Z,10.80
2023-04-01T05:35:24.638Z,10.86
2023-04-01T05:37:51.463Z,10.95
2023-04-01T05:40:18.828Z,11.02
2023-04-01T05:42:47.962Z,11.04
2023-04-01T05:45:16.869Z,11.07
2023-04-01T05:48:03.089Z,11.05
2023-04-01T05:50:38.729Z,11.12
2023-04-01T05:53:08.707Z,11.22
2023-04-01T05:55:39.136Z,11.34
2023-04-01T05:58:06.538Z,11.53
2023-04-01T06:00:35.585Z,11.54
2023-04-01T06:03:07.203Z,11.60
2023-04-01T06:05:42.334Z,11.71
2023-04-01T06:08:20.457Z,11.76
2023-04-01T06:11:07.045Z,11.75
2023-04-01T06:13:53.238Z,11.85
2023-04-01T06:16:35.623Z,12.12
2023-04-01T06:19:21.325Z,12.09
2023-04-01T06:21:48.752Z,12.05
2023-04-01T06:24:24.696Z,12.07
2023-04-01T06:26:54.984Z,12.07
2023-04-01T06:29:31.665Z,12.24
2023-04-01T06:32:04.788Z,12.31
2023-04-01T06:34:34.688Z,12.22
2023-04-01T06:37:01.369Z,12.01
2023-04-01T06:39:28.041Z,11.93
2023-04-01T06:42:01.085Z,11.89
2023-04-01T06:44:31.237Z,11.85
2023-04-01T06:50:22.645Z,11.91
2023-04-01T06:53:33.348Z,12.02
2023-04-01T06:56:19.435Z,12.00
2023-04-01T06:59:05.450Z,12.00
2023-04-01T07:01:41.308Z,12.20
2023-04-01T07:04:12.953Z,12.29
2023-04-01T07:06:47.539Z,12.35
2023-04-01T07:09:21.028Z,12.41
2023-04-01T07:12:16.069Z,12.55
2023-04-01T07:15:34.452Z,12.64
2023-04-01T07:18:04.691Z,12.77
2023-04-01T07:20:36.456Z,12.92
2023-04-01T07:23:05.085Z,13.01
2023-04-01T07:26:02.258Z,13.17
2023-04-01T07:28:33.310Z,13.49
2023-04-01T07:31:12.971Z,13.71
2023-04-01T07:33:45.803Z,13.56
2023-04-01T07:36:24.864Z,13.39
2023-04-01T07:39:10.507Z,13.43
2023-04-01T07:42:15.903Z,13.45
2023-04-01T07:44:45.844Z,13.72
2023-04-01T07:47:16.489Z,13.57
2023-04-01T07:49:53.485Z,13.37
2023-04-01T07:52:22.370Z,13.35
2023-04-01T07:54:58.452Z,13.45
2023-04-01T07:57:36.388Z,13.51
2023-04-01T08:00:06.305Z,13.53
2023-04-01T08:02:54.585Z,13.64
2023-04-01T08:05:21.543Z,13.78
2023-04-01T08:07:52.262Z,14.03
2023-04-01T08:10:37.457Z,14.34
2023-04-01T08:13:24.806Z,14.55
2023-04-01T08:16:35.937Z,14.71
2023-04-01T08:19:14.262Z,14.77
2023-04-01T08:21:51.123Z,14.63
2023-04-01T08:24:46.430Z,14.51
2023-04-01T08:27:17.885Z,14.74
2023-04-01T08:29:50.510Z,14.54
2023-04-01T08:32:18.150Z,14.42
2023-04-01T08:34:48.799Z,14.49
2023-04-01T08:37:33.009Z,14.66
2023-04-01T08:40:03.424Z,14.92
2023-04-01T08:42:48.638Z,15.09
2023-04-01T08:45:19.447Z,15.03
2023-04-01T08:48:09.829Z,15.20
2023-04-01T08:50:45.742Z,14.87
2023-04-01T08:53:39.311Z,14.56
2023-04-01T08:56:10.224Z,14.40
2023-04-01T08:58:55.747Z,14.33
2023-04-01T09:01:29.635Z,14.63
2023-04-01T09:03:59.539Z,14.90
2023-04-01T09:06:29.812Z,15.27
2023-04-01T09:09:05.701Z,15.28
2023-04-01T09:11:51.777Z,15.24
2023-04-01T09:14:39.602Z,15.05
2023-04-01T09:17:38.046Z,15.51
2023-04-01T09:20:23.490Z,15.78
2023-04-01T09:23:09.346Z,15.73
2023-04-01T09:25:55.072Z,15.86
2023-04-01T09:28:21.956Z,16.15
2023-04-01T09:30:48.811Z,15.88
2023-04-01T09:33:28.450Z,15.48
2023-04-01T09:35:58.551Z,15.04
2023-04-01T09:38:32.719Z,15.10
2023-04-01T09:40:59.935Z,15.07
2023-04-01T09:43:44.454Z,14.65
2023-04-01T09:46:15.296Z,14.05
2023-04-01T09:48:56.393Z,14.25
2023-04-01T09:51:22.997Z,14.50
2023-04-01T09:53:50.203Z,14.79
2023-04-01T09:56:26.137Z,14.88
2023-04-01T09:59:05.417Z,14.55
2023-04-01T10:01:43.849Z,14.46
2023-04-01T10:04:18.272Z,14.62
2023-04-01T10:06:52.483Z,14.78
2023-04-01T10:09:28.129Z,15.09
2023-04-01T10:11:54.760Z,15.25
2023-04-01T10:14:54.078Z,15.45
2023-04-01T10:17:20.782Z,15.63
2023-04-01T10:19:58.814Z,15.55
2023-04-01T10:22:43.125Z,15.58
2023-04-01T10:25:34.522Z,15.58
2023-04-01T10:28:13.571Z,15.24
2023-04-01T10:31:17.926Z,15.29
2023-04-01T10:33:57.477Z,15.72
2023-04-01T10:36:31.416Z,15.92
2023-04-01T10:39:11.589Z,15.87
2023-04-01T10:41:49.729Z,16.07
2023-04-01T10:44:35.192Z,15.91
2023-04-01T10:47:33.571Z,16.05
2023-04-01T10:50:18.989Z,16.47
2023-04-01T10:52:52.602Z,16.62
2023-04-01T10:55:52.713Z,16.77
2023-04-01T10:59:00.280Z,17.12
2023-04-01T11:01:54.927Z,17.01
2023-04-01T11:05:04.745Z,17.22
2023-04-01T11:08:09.279Z,17.53
2023-04-01T11:10:44.760Z,17.59
2023-04-01T11:13:13.894Z,17.40
2023-04-01T11:15:42.990Z,17.09
2023-04-01T11:18:21.370Z,17.62
2023-04-01T11:21:08.133Z,18.17
2023-04-01T11:23:45.460Z,18.10
2023-04-01T11:26:17.007Z,18.13
2023-04-01T11:29:06.361Z,17.82
2023-04-01T11:32:07.175Z,17.27
2023-04-01T11:34:49.355Z,16.51
2023-04-01T11:37:22.361Z,16.40
2023-04-01T11:40:26.071Z,16.34
2023-04-01T11:43:56.567Z,16.13
2023-04-01T11:46:55.088Z,15.99
2023-04-01T11:49:27.372Z,15.82
2023-04-01T11:52:18.623Z,15.39
2023-04-01T11:54:48.397Z,15.19
2023-04-01T11:57:37.334Z,15.07
2023-04-01T12:00:17.726Z,15.23
2023-04-01T12:03:05.223Z,15.57
2023-04-01T12:05:32.336Z,15.95
2023-04-01T12:08:17.006Z,16.11
2023-04-01T12:10:46.589Z,16.26
2023-04-01T12:13:31.929Z,16.43
2023-04-01T12:16:04.801Z,16.81
2023-04-01T12:18:50.748Z,17.03
2023-04-01T12:21:25.682Z,17.09
2023-04-01T12:24:27.125Z,16.98
2023-04-01T12:27:06.041Z,17.00
2023-04-01T12:29:35.732Z,16.98
2023-04-01T12:32:07.155Z,17.00
2023-04-01T12:34:41.770Z,17.15
2023-04-01T12:37:32.045Z,17.21
2023-04-01T12:40:01.798Z,17.44
2023-04-01T12:42:47.290Z,17.92
2023-04-01T12:45:33.714Z,18.57
2023-04-01T12:48:36.068Z,19.49
2023-04-01T12:51:07.857Z,20.04
2023-04-01T12:53:37.199Z,20.70
2023-04-01T12:56:04.972Z,20.90
2023-04-01T12:58:50.756Z,20.56
2023-04-01T13:01:18.071Z,20.54
2023-04-01T13:04:03.840Z,21.01
2023-04-01T13:06:34.663Z,21.46
2023-04-01T13:09:09.950Z,22.12
2023-04-01T13:11:41.975Z,22.09
2023-04-01T13:14:21.633Z,22.09
2023-04-01T13:16:58.398Z,23.21
2023-04-01T13:19:27.456Z,24.14
2023-04-01T13:22:20.139Z,25.03
2023-04-01T13:24:50.976Z,25.82
2023-04-01T13:27:23.927Z,26.11
2023-04-01T13:29:53.560Z,26.97
2023-04-01T13:32:20.927Z,27.39
2023-04-01T13:35:10.128Z,27.72
2023-04-01T13:37:52.377Z,27.16
2023-04-01T13:40:27.356Z,27.23
2023-04-01T13:43:13.804Z,27.31
2023-04-01T13:45:49.801Z,25.73
2023-04-01T13:48:34.903Z,24.62
2023-04-01T13:51:04.007Z,24.39
2023-04-01T13:53:33.696Z,22.67
2023-04-01T13:56:02.861Z,23.21
2023-04-01T13:58:33.005Z,24.13
2023-04-01T14:01:08.764Z,22.79
2023-04-01T14:03:54.235Z,22.27
2023-04-01T14:06:38.927Z,21.98
2023-04-01T14:09:05.585Z,19.69
2023-04-01T14:11:34.494Z,18.65
2023-04-01T14:14:07.246Z,17.77
2023-04-01T14:16:34.289Z,17.07
2023-04-01T14:19:21.236Z,16.74
2023-04-01T14:21:59.639Z,18.11
2023-04-01T14:24:46.956Z,19.04
2023-04-01T14:27:13.615Z,19.61
2023-04-01T14:29:40.365Z,19.87
2023-04-01T14:32:06.990Z,20.50
2023-04-01T14:34:42.684Z,21.55
2023-04-01T14:37:14.125Z,21.31
2023-04-01T14:39:56.455Z,22.10
2023-04-01T14:42:28.366Z,22.54
2023-04-01T14:45:21.408Z,22.77
2023-04-01T14:48:05.469Z,23.58
2023-04-01T14:50:41.505Z,24.39
2023-04-01T14:53:08.168Z,25.81
2023-04-01T14:55:35.140Z,26.95
2023-04-01T14:58:17.707Z,26.08
2023-04-01T15:00:49.977Z,25.31
2023-04-01T15:03:26.568Z,25.94
2023-04-01T15:05:56.505Z,26.81
2023-04-01T15:08:42.609Z,27.39
2023-04-01T15:11:27.360Z,27.14
2023-04-01T15:14:00.440Z,25.62
2023-04-01T15:16:29.701Z,25.19
2023-04-01T15:19:20.172Z,25.54
2023-04-01T15:21:52.459Z,25.92
2023-04-01T15:24:28.603Z,26.08
2023-04-01T15:27:04.217Z,25.28
2023-04-01T15:29:49.289Z,24.40
2023-04-01T15:32:21.084Z,24.00
2023-04-01T15:34:47.811Z,23.75
2023-04-01T15:37:17.419Z,22.71
2023-04-01T15:40:03.026Z,22.24
2023-04-01T15:42:44.980Z,22.29
2023-04-01T15:45:19.044Z,22.27
2023-04-01T15:47:46.991Z,22.64
2023-04-01T15:50:27.304Z,23.61
2023-04-01T15:53:31.614Z,23.93
2023-04-01T15:56:22.860Z,23.83
2023-04-01T15:59:15.781Z,23.71
2023-04-01T16:01:47.434Z,23.68
2023-04-01T16:04:25.963Z,23.03
2023-04-01T16:07:11.501Z,21.98
2023-04-01T16:09:48.540Z,22.21
2023-04-01T16:12:30.554Z,22.26
2023-04-01T16:15:19.503Z,22.52
2023-04-01T16:17:54.660Z,23.29
2023-04-01T16:20:24.353Z,23.22
2023-04-01T16:23:01.457Z,23.51
2023-04-01T16:28:41.943Z,23.01
2023-04-01T16:31:11.013Z,22.85
2023-04-01T16:33:56.619Z,22.92
2023-04-01T16:36:36.844Z,22.19
2023-04-01T16:39:11.600Z,21.59
2023-04-01T16:41:48.873Z,21.40
2023-04-01T16:44:23.574Z,21.89
2023-04-01T16:47:09.282Z,21.99
2023-04-01T16:49:51.762Z,21.91
2023-04-01T16:52:18.853Z,21.90
2023-04-01T16:54:53.966Z,21.74
2023-04-01T16:57:24.378Z,21.25
2023-04-01T17:00:03.346Z,21.07
2023-04-01T17:02:35.367Z,20.84
2023-04-01T17:05:20.119Z,20.40
2023-04-01T17:08:08.044Z,20.10
2023-04-01T17:10:38.455Z,19.87
2023-04-01T17:13:05.225Z,19.75
2023-04-01T17:15:34.933Z,19.67
2023-04-01T17:18:10.813Z,19.54
2023-04-01T17:20:41.777Z,19.39
2023-04-01T17:23:14.244Z,19.17
2023-04-01T17:25:40.999Z,18.77
2023-04-01T17:28:16.960Z,18.53
2023-04-01T17:31:02.432Z,18.42
2023-04-01T17:33:32.602Z,18.21
2023-04-01T17:35:59.324Z,18.08
2023-04-01T17:38:32.114Z,18.00
2023-04-01T17:41:05.028Z,17.94
2023-04-01T17:43:50.809Z,17.82
2023-04-01T17:46:40.912Z,17.63
2023-04-01T17:49:40.185Z,17.51
2023-04-01T17:52:25.668Z,17.33
2023-04-01T17:55:16.727Z,17.20
2023-04-01T17:57:56.427Z,16.85
2023-04-01T18:00:53.449Z,16.57
2023-04-01T18:03:24.206Z,16.50
2023-04-01T18:05:59.888Z,16.47
2023-04-01T18:08:47.301Z,16.52
2023-04-01T18:11:16.917Z,16.33
2023-04-01T18:13:56.082Z,16.14
2023-04-01T18:16:29.719Z,16.05
2023-04-01T18:19:03.463Z,16.01
2023-04-01T18:21:46.757Z,15.99
2023-04-01T18:24:16.310Z,15.82
2023-04-01T18:26:44.078Z,15.67
2023-04-01T18:29:13.184Z,15.56
2023-04-01T18:31:44.318Z,15.55
2023-04-01T18:34:18.806Z,15.52
2023-04-01T18:36:47.752Z,15.30
2023-04-01T18:39:18.762Z,15.24
2023-04-01T18:41:45.421Z,15.22
2023-04-01T18:44:12.232Z,15.27
2023-04-01T18:46:59.883Z,15.26
2023-04-01T18:49:41.832Z,15.21
2023-04-01T18:52:19.132Z,15.12
2023-04-01T18:54:55.001Z,14.88
2023-04-01T18:57:21.812Z,14.66
2023-04-01T18:59:54.385Z,14.52
2023-04-01T19:02:21.672Z,14.60
2023-04-01T19:04:53.875Z,14.72
2023-04-01T19:07:40.361Z,14.65
2023-04-01T19:10:21.584Z,14.57
2023-04-01T19:13:01.266Z,14.47
2023-04-01T19:15:48.895Z,14.34
2023-04-01T19:18:15.577Z,14.38
2023-04-01T19:20:55.036Z,14.15
2023-04-01T19:23:48.924Z,13.88
2023-04-01T19:26:22.322Z,13.80
2023-04-01T19:28:49.750Z,13.76
2023-04-01T19:31:31.793Z,13.80
2023-04-01T19:34:00.254Z,13.79
2023-04-01T19:36:32.637Z,13.83
2023-04-01T19:39:17.194Z,13.93
2023-04-01T19:41:53.031Z,14.05
2023-04-01T19:44:54.601Z,14.05
2023-04-01T19:47:40.491Z,14.13
2023-04-01T19:50:50.157Z,14.13
2023-04-01T19:53:35.654Z,14.19
2023-04-01T19:56:07.593Z,14.22
2023-04-01T19:58:49.042Z,14.04
2023-04-01T20:01:32.005Z,13.95
2023-04-01T20:04:23.751Z,13.91
2023-04-01T20:07:11.118Z,13.87
2023-04-01T20:09:51.726Z,13.89
2023-04-01T20:12:37.334Z,13.93
2023-04-01T20:15:08.488Z,13.91
2023-04-01T20:17:38.308Z,13.89
2023-04-01T20:20:09.377Z,13.83
2023-04-01T20:22:45.272Z,13.71
2023-04-01T20:25:30.660Z,13.63
2023-04-01T20:27:57.225Z,13.47
2023-04-01T20:30:47.537Z,13.26
2023-04-01T20:33:33.323Z,13.12
2023-04-01T20:36:22.511Z,13.22
2023-04-01T20:38:49.125Z,13.25
2023-04-01T20:41:25.376Z,13.12
2023-04-01T20:44:00.538Z,13.06
2023-04-01T20:46:46.907Z,13.06
2023-04-01T20:49:14.486Z,13.04
2023-04-01T20:51:47.037Z,13.05
2023-04-01T20:54:19.697Z,13.13
2023-04-01T20:57:02.147Z,13.17
2023-04-01T20:59:31.248Z,13.04
2023-04-01T21:01:57.850Z,12.97
2023-04-01T21:04:30.964Z,12.84
2023-04-01T21:07:03.015Z,12.77
2023-04-01T21:09:30.040Z,12.81
2023-04-01T21:11:57.243Z,12.72
2023-04-01T21:14:35.955Z,12.69
2023-04-01T21:17:24.442Z,12.72
2023-04-01T21:19:54.297Z,12.81
2023-04-01T21:22:21.256Z,12.84
2023-04-01T21:24:57.086Z,12.86
2023-04-01T21:27:33.085Z,12.80
2023-04-01T21:30:03.067Z,12.68
2023-04-01T21:32:39.354Z,12.68
2023-04-01T21:35:22.842Z,12.64
2023-04-01T21:37:53.170Z,12.62
2023-04-01T21:40:22.802Z,12.63
2023-04-01T21:42:51.940Z,12.68
2023-04-01T21:45:24.894Z,12.74
2023-04-01T21:48:00.827Z,12.74
2023-04-01T21:50:44.344Z,12.69
2023-04-01T21:53:34.454Z,12.56
2023-04-01T21:56:01.201Z,12.58
2023-04-01T21:58:40.273Z,12.52
2023-04-01T22:01:09.873Z,12.44
2023-04-01T22:03:48.327Z,12.49
2023-04-01T22:06:17.331Z,12.53
2023-04-01T22:08:53.179Z,12.41
2023-04-01T22:11:22.878Z,12.39
2023-04-01T22:14:18.703Z,12.37
2023-04-01T22:16:58.745Z,12.48
2023-04-01T22:19:31.609Z,12.58
2023-04-01T22:22:17.008Z,12.58
2023-04-01T22:25:02.405Z,12.55
2023-04-01T22:27:36.247Z,12.46
2023-04-01T22:30:06.610Z,12.34
2023-04-01T22:32:36.755Z,12.27
2023-04-01T22:35:06.902Z,12.28
2023-04-01T22:37:59.177Z,12.27
2023-04-01T22:40:31.807Z,12.17
2023-04-01T22:43:04.557Z,12.12
2023-04-01T22:45:32.330Z,12.11
2023-04-01T22:48:03.162Z,12.28
2023-04-01T22:50:48.401Z,12.28
2023-04-01T22:53:15.071Z,12.26
2023-04-01T22:55:53.693Z,12.27
2023-04-01T22:58:30.584Z,12.21
2023-04-01T23:00:58.118Z,12.12
2023-04-01T23:03:28.580Z,12.04
2023-04-01T23:05:56.481Z,11.98
2023-04-01T23:08:37.967Z,11.89
2023-04-01T23:11:05.984Z,11.91
2023-04-01T23:13:39.110Z,11.86
2023-04-01T23:16:05.928Z,11.78
2023-04-01T23:18:53.138Z,11.67
2023-04-01T23:21:20.944Z,11.70
2023-04-01T23:24:09.347Z,11.68
2023-04-01T23:26:51.536Z,11.62
2023-04-01T23:29:18.820Z,11.64
2023-04-01T23:31:46.254Z,11.47
2023-04-01T23:34:12.942Z,11.35
2023-04-01T23:37:02.848Z,11.22
2023-04-01T23:39:35.889Z,11.12
2023-04-01T23:42:05.644Z,11.17
2023-04-01T23:44:32.465Z,11.17
2023-04-01T23:46:59.452Z,11.23
2023-04-01T23:49:29.991Z,11.24
2023-04-01T23:52:00.941Z,11.24
2023-04-01T23:54:35.006Z,11.23
2023-04-01T23:57:04.476Z,11.20
2023-04-01T23:59:36.202Z,11.30
